Time;durP1;ratioP1;P1;durP2;ratioP2;P2;SDS_P1;SDS_P2;PMS_P1;PMS_P2;Temp;Humidity;BMP_temperature;BMP_pressure;BME280_temperature;BME280_humidity;BME280_pressure;Samples;Min_cycle;Max_cycle;Signal;HPM_P1;HPM_P2
2024/02/19 00:00:18;;;;;;;14.98;3.17;;;9.30;96.10;;;;;;5091736;28;20024;-34
2024/02/19 00:02:43;;;;;;;13.35;3.10;;;9.30;96.10;;;;;;5092010;28;20099;-35
2024/02/19 00:05:09;;;;;;;14.57;3.45;;;9.30;96.10;;;;;;5091796;28;20480;-37
2024/02/19 00:07:35;;;;;;;14.18;2.70;;;9.20;96.10;;;;;;5091409;28;20119;-37
2024/02/19 00:10:01;;;;;;;18.42;2.88;;;9.30;96.10;;;;;;5091520;28;20517;-33
2024/02/19 00:12:26;;;;;;;20.20;2.67;;;9.30;96.10;;;;;;5091626;28;20408;-33
2024/02/19 00:14:52;;;;;;;17.08;2.67;;;9.30;96.10;;;;;;5091286;28;20185;-35
2024/02/19 00:17:17;;;;;;;14.77;3.17;;;9.30;96.10;;;;;;5091248;28;20393;-35
2024/02/19 00:19:43;;;;;;;18.23;3.35;;;9.30;96.10;;;;;;5091280;28;20024;-36
2024/02/19 00:22:08;;;;;;;16.80;2.90;;;9.30;96.00;;;;;;5091710;28;20031;-34
2024/02/19 00:24:34;;;;;;;13.85;2.25;;;9.30;96.00;;;;;;5091385;28;20020;-33
2024/02/19 00:26:59;;;;;;;13.82;2.67;;;9.30;96.00;;;;;;5091186;28;20366;-35
2024/02/19 00:29:25;;;;;;;16.65;2.80;;;9.30;96.00;;;;;;5091400;28;20115;-34
2024/02/19 00:31:51;;;;;;;16.50;3.00;;;9.30;96.00;;;;;;5091434;28;20032;-39
2024/02/19 00:34:17;;;;;;;17.30;3.22;;;9.30;95.90;;;;;;5091137;28;20048;-36
2024/02/19 00:36:43;;;;;;;13.07;2.85;;;9.30;95.90;;;;;;5091485;28;20035;-35
2024/02/19 00:39:09;;;;;;;18.55;3.78;;;9.30;95.90;;;;;;5089867;28;20028;-36
2024/02/19 00:41:36;;;;;;;19.40;2.90;;;9.30;95.90;;;;;;5092908;28;20023;-35
2024/02/19 00:44:02;;;;;;;15.25;2.85;;;9.30;95.90;;;;;;5095057;28;20020;-35
2024/02/19 00:46:27;;;;;;;19.98;3.10;;;9.20;95.90;;;;;;5095361;28;20028;-35
2024/02/19 00:48:53;;;;;;;20.85;3.35;;;9.30;95.90;;;;;;5094952;28;20035;-35
2024/02/19 00:51:19;;;;;;;16.02;3.22;;;9.30;95.90;;;;;;5093638;28;20513;-34
2024/02/19 00:53:44;;;;;;;15.85;2.70;;;9.30;95.80;;;;;;5095026;28;20034;-34
2024/02/19 00:56:10;;;;;;;22.17;3.58;;;9.30;95.80;;;;;;5094822;28;20362;-38
2024/02/19 00:58:35;;;;;;;18.45;3.25;;;9.30;95.80;;;;;;5094954;28;20499;-34
2024/02/19 01:01:01;;;;;;;17.13;3.17;;;9.20;95.80;;;;;;5094728;28;20028;-35
2024/02/19 01:03:26;;;;;;;20.55;2.65;;;9.20;95.80;;;;;;5094669;28;20028;-36
2024/02/19 01:05:52;;;;;;;16.05;3.25;;;9.20;95.80;;;;;;5094903;28;20104;-35
2024/02/19 01:08:17;;;;;;;16.90;2.80;;;9.20;95.70;;;;;;5094705;28;20077;-37
2024/02/19 01:10:43;;;;;;;17.90;2.70;;;9.20;95.70;;;;;;5094904;28;20030;-36
2024/02/19 01:13:08;;;;;;;10.10;2.42;;;9.20;95.70;;;;;;5094465;28;20103;-35
2024/02/19 01:15:34;;;;;;;16.98;3.22;;;9.20;95.70;;;;;;5094567;28;20032;-34
2024/02/19 01:18:00;;;;;;;17.05;3.00;;;9.20;95.60;;;;;;5094300;28;20054;-35
2024/02/19 01:20:25;;;;;;;16.23;2.80;;;9.20;95.60;;;;;;5094691;28;20016;-34
2024/02/19 01:22:51;;;;;;;11.80;2.38;;;9.20;95.70;;;;;;5094354;28;20672;-37
2024/02/19 01:25:19;;;;;;;13.57;2.63;;;9.30;95.70;;;;;;5094181;28;20397;-38
2024/02/19 01:27:45;;;;;;;8.95;2.40;;;9.30;95.60;;;;;;5094555;28;20358;-44
2024/02/19 01:30:11;;;;;;;13.43;3.05;;;9.30;95.70;;;;;;5094584;28;20031;-35
2024/02/19 01:32:39;;;;;;;11.32;2.30;;;9.30;95.60;;;;;;5093969;28;20436;-34
2024/02/19 01:35:07;;;;;;;19.88;3.40;;;9.30;95.60;;;;;;5094038;28;20056;-37
2024/02/19 01:37:32;;;;;;;17.17;2.90;;;9.30;95.60;;;;;;5094178;28;20050;-38
2024/02/19 01:39:58;;;;;;;16.52;2.35;;;9.30;95.60;;;;;;5092746;28;20024;-35
2024/02/19 01:42:24;;;;;;;12.35;2.33;;;9.30;95.50;;;;;;5094186;28;20026;-37
2024/02/19 01:44:49;;;;;;;20.92;2.80;;;9.30;95.60;;;;;;5094406;28;20016;-36
2024/02/19 01:47:17;;;;;;;11.48;3.10;;;9.30;95.60;;;;;;5094348;28;20487;-34
2024/02/19 01:49:44;;;;;;;15.50;2.40;;;9.30;95.50;;;;;;5093992;28;20012;-33
2024/02/19 01:52:10;;;;;;;11.38;2.55;;;9.30;95.50;;;;;;5093813;28;20020;-34
2024/02/19 01:54:37;;;;;;;15.20;2.42;;;9.30;95.50;;;;;;5093037;28;20028;-35
2024/02/19 01:57:03;;;;;;;16.77;2.85;;;9.30;95.50;;;;;;5093568;28;20024;-42
2024/02/19 01:59:31;;;;;;;23.38;3.13;;;9.30;95.50;;;;;;5093985;28;20024;-38
2024/02/19 02:01:58;;;;;;;15.93;2.90;;;9.40;95.50;;;;;;5093292;28;20073;-36
2024/02/19 02:04:26;;;;;;;15.55;2.53;;;9.40;95.50;;;;;;5093534;28;20038;-33
2024/02/19 02:06:52;;;;;;;13.50;2.90;;;9.30;95.50;;;;;;5093599;28;20032;-34
2024/02/19 02:09:18;;;;;;;16.80;3.20;;;9.40;95.50;;;;;;5093781;28;20052;-35
2024/02/19 02:11:44;;;;;;;16.80;2.97;;;9.40;95.50;;;;;;5093119;28;20480;-33
2024/02/19 02:14:09;;;;;;;13.82;2.80;;;9.30;95.50;;;;;;5093456;28;20031;-35
2024/02/19 02:16:35;;;;;;;16.67;2.80;;;9.40;95.50;;;;;;5093094;28;20024;-36
2024/02/19 02:19:00;;;;;;;11.40;2.42;;;9.30;95.50;;;;;;5093038;28;20380;-36
2024/02/19 02:21:26;;;;;;;17.80;3.00;;;9.30;95.50;;;;;;5093147;28;20050;-34
2024/02/19 02:23:52;;;;;;;15.43;2.85;;;9.30;95.50;;;;;;5093248;28;20043;-36
2024/02/19 02:26:18;;;;;;;15.60;2.35;;;9.30;95.50;;;;;;5093499;28;20103;-35
2024/02/19 02:28:43;;;;;;;16.60;2.72;;;9.20;95.50;;;;;;5093353;28;20055;-34
2024/02/19 02:31:09;;;;;;;12.52;2.63;;;9.20;95.50;;;;;;5092897;28;20069;-38
2024/02/19 02:33:34;;;;;;;18.42;3.50;;;9.20;95.50;;;;;;5092942;28;20063;-34
2024/02/19 02:36:01;;;;;;;15.80;2.97;;;9.20;95.50;;;;;;5092767;28;20016;-33
2024/02/19 02:38:27;;;;;;;16.05;2.97;;;9.20;95.60;;;;;;5092953;28;20020;-37
2024/02/19 02:40:54;;;;;;;15.73;2.83;;;9.20;95.60;;;;;;5092749;28;20491;-35
2024/02/19 02:43:20;;;;;;;19.80;3.53;;;9.20;95.60;;;;;;5092822;28;20031;-35
2024/02/19 02:45:45;;;;;;;19.42;3.80;;;9.20;95.60;;;;;;5092711;28;20024;-35
2024/02/19 02:48:11;;;;;;;17.08;3.47;;;9.20;95.60;;;;;;5092592;28;20038;-36
2024/02/19 02:50:36;;;;;;;18.88;2.92;;;9.20;95.50;;;;;;5092990;28;20077;-33
2024/02/19 02:53:02;;;;;;;14.77;2.92;;;9.20;95.50;;;;;;5092541;28;20103;-38
2024/02/19 02:55:28;;;;;;;14.55;2.95;;;9.10;95.50;;;;;;5092615;28;20027;-39
2024/02/19 02:57:53;;;;;;;16.80;2.63;;;9.10;95.50;;;;;;5092445;28;20031;-34
2024/02/19 03:00:19;;;;;;;13.98;3.03;;;9.20;95.60;;;;;;5092606;28;20030;-34
2024/02/19 03:02:45;;;;;;;19.55;3.20;;;9.20;95.60;;;;;;5092293;28;20054;-35
2024/02/19 03:05:10;;;;;;;17.02;2.78;;;9.20;95.60;;;;;;5092089;28;20020;-35
2024/02/19 03:07:36;;;;;;;20.95;2.92;;;9.10;95.60;;;;;;5092418;28;20492;-36
2024/02/19 03:10:02;;;;;;;16.88;3.40;;;9.20;95.60;;;;;;5092671;28;20028;-38
2024/02/19 03:12:29;;;;;;;12.63;2.75;;;9.10;95.60;;;;;;5092210;28;20027;-35
2024/02/19 03:14:54;;;;;;;12.63;2.70;;;9.20;95.60;;;;;;5092507;28;20032;-36
2024/02/19 03:17:20;;;;;;;17.73;3.63;;;9.20;95.60;;;;;;5092005;28;20389;-39
2024/02/19 03:19:46;;;;;;;18.77;3.40;;;9.20;95.60;;;;;;5092275;28;20441;-35
2024/02/19 03:22:13;;;;;;;18.33;2.83;;;9.20;95.50;;;;;;5092250;28;20031;-39
2024/02/19 03:24:39;;;;;;;16.13;3.03;;;9.20;95.60;;;;;;5092430;28;20460;-35
2024/02/19 03:27:04;;;;;;;19.98;3.13;;;9.20;95.60;;;;;;5092105;28;20020;-36
2024/02/19 03:29:30;;;;;;;12.85;2.42;;;9.20;95.80;;;;;;5091799;28;20038;-37
2024/02/19 03:31:56;;;;;;;16.98;3.08;;;9.20;95.60;;;;;;5091915;28;20047;-33
2024/02/19 03:34:22;;;;;;;17.17;3.00;;;9.30;95.60;;;;;;5091808;28;20420;-40
2024/02/19 03:36:49;;;;;;;16.55;2.80;;;9.30;95.60;;;;;;5091749;28;20025;-35
2024/02/19 03:39:15;;;;;;;19.23;3.67;;;9.30;95.50;;;;;;5091948;28;20024;-33
2024/02/19 03:41:41;;;;;;;21.27;3.60;;;9.30;95.50;;;;;;5091799;28;20028;-35
2024/02/19 03:44:06;;;;;;;13.68;2.90;;;9.30;95.50;;;;;;5092099;28;20428;-37
2024/02/19 03:46:32;;;;;;;18.67;3.28;;;9.30;95.50;;;;;;5091593;28;20142;-35
2024/02/19 03:48:58;;;;;;;18.73;3.30;;;9.30;95.50;;;;;;5091526;28;20070;-34
2024/02/19 03:51:23;;;;;;;12.95;3.10;;;9.30;95.50;;;;;;5091499;28;20145;-36
2024/02/19 03:53:49;;;;;;;16.17;3.22;;;9.30;95.50;;;;;;5091636;28;20485;-42
2024/02/19 03:56:14;;;;;;;16.52;3.15;;;9.30;95.50;;;;;;5091748;28;20438;-38
2024/02/19 03:58:40;;;;;;;18.10;3.55;;;9.30;95.50;;;;;;5091469;28;20099;-39
2024/02/19 04:01:06;;;;;;;15.52;3.80;;;9.30;95.50;;;;;;5091419;28;20086;-39
2024/02/19 04:03:31;;;;;;;19.48;3.67;;;9.30;95.50;;;;;;5091790;28;20028;-41
2024/02/19 04:05:57;;;;;;;21.77;3.92;;;9.30;95.50;;;;;;5091302;28;20031;-38
2024/02/19 04:08:22;;;;;;;22.25;4.55;;;9.30;95.50;;;;;;5091376;28;20024;-41
2024/02/19 04:10:48;;;;;;;22.00;4.55;;;9.30;95.50;;;;;;5091707;28;20047;-42
2024/02/19 04:13:13;;;;;;;12.80;3.55;;;9.30;95.50;;;;;;5091520;28;20050;-39
2024/02/19 04:15:39;;;;;;;20.33;4.15;;;9.30;95.50;;;;;;5091378;28;20485;-37
2024/02/19 04:18:05;;;;;;;17.67;3.55;;;9.30;95.50;;;;;;5095516;28;20472;-39
2024/02/19 04:20:31;;;;;;;20.15;3.70;;;9.30;95.50;;;;;;5095548;28;20036;-41
2024/02/19 04:22:56;;;;;;;24.27;5.28;;;9.30;95.50;;;;;;5095373;28;20020;-37
2024/02/19 04:25:22;;;;;;;16.05;4.13;;;9.30;95.50;;;;;;5095692;28;20020;-38
2024/02/19 04:27:48;;;;;;;16.75;3.45;;;9.30;95.80;;;;;;5095461;28;20024;-41
2024/02/19 04:30:13;;;;;;;17.90;3.90;;;9.30;95.50;;;;;;5095330;28;20028;-40
2024/02/19 04:32:39;;;;;;;22.42;5.53;;;9.30;95.50;;;;;;5095444;28;20104;-39
2024/02/19 04:35:05;;;;;;;19.40;3.95;;;9.30;95.50;;;;;;5095089;28;20055;-39
2024/02/19 04:37:31;;;;;;;17.42;4.00;;;9.30;95.80;;;;;;5095328;28;20032;-37
2024/02/19 04:39:57;;;;;;;26.98;4.38;;;9.30;95.50;;;;;;5095517;28;20488;-39
2024/02/19 04:42:22;;;;;;;19.40;3.90;;;9.30;95.50;;;;;;5095047;28;20101;-38
2024/02/19 04:44:48;;;;;;;13.77;3.75;;;9.30;95.50;;;;;;5093837;28;20012;-35
2024/02/19 04:47:13;;;;;;;16.45;3.30;;;9.30;95.60;;;;;;5095109;28;20047;-41
2024/02/19 04:49:39;;;;;;;20.38;3.88;;;9.30;95.60;;;;;;5093854;28;20232;-39
2024/02/19 04:52:05;;;;;;;18.45;3.30;;;9.30;95.60;;;;;;5094931;28;20103;-39
2024/02/19 04:54:31;;;;;;;15.65;3.00;;;9.30;95.60;;;;;;5095513;28;20107;-39
2024/02/19 04:56:57;;;;;;;17.73;3.47;;;9.30;95.60;;;;;;5094800;28;20024;-34
2024/02/19 04:59:23;;;;;;;16.35;3.65;;;9.40;95.60;;;;;;5094828;28;20062;-32
2024/02/19 05:01:50;;;;;;;15.77;3.22;;;9.40;95.60;;;;;;5095061;28;20420;-35
2024/02/19 05:04:16;;;;;;;16.38;3.38;;;9.40;95.60;;;;;;5095039;28;20020;-36
2024/02/19 05:06:41;;;;;;;13.23;2.97;;;9.40;95.60;;;;;;5094828;28;20032;-37
2024/02/19 05:09:07;;;;;;;14.73;2.80;;;9.40;95.60;;;;;;5094730;28;20085;-34
2024/02/19 05:11:33;;;;;;;13.85;3.25;;;9.40;95.60;;;;;;5094359;28;20031;-37
2024/02/19 05:13:59;;;;;;;14.00;2.85;;;9.40;95.60;;;;;;5094971;28;20028;-35
2024/02/19 05:16:24;;;;;;;13.98;3.05;;;9.40;95.60;;;;;;5094344;28;20472;-35
2024/02/19 05:18:50;;;;;;;11.13;2.63;;;9.40;95.60;;;;;;5093473;28;20028;-35
2024/02/19 05:21:16;;;;;;;12.73;2.83;;;9.40;95.60;;;;;;5094340;28;20468;-38
2024/02/19 05:23:42;;;;;;;13.23;2.70;;;9.40;95.60;;;;;;5094384;28;20496;-35
2024/02/19 05:26:07;;;;;;;16.63;3.35;;;9.40;95.60;;;;;;5094523;28;20110;-33
2024/02/19 05:28:33;;;;;;;12.23;2.65;;;9.40;95.60;;;;;;5092814;28;20016;-39
2024/02/19 05:30:58;;;;;;;17.48;3.35;;;9.40;95.60;;;;;;5094317;28;20024;-34
2024/02/19 05:33:24;;;;;;;18.42;4.00;;;9.40;95.60;;;;;;5094299;28;20140;-38
2024/02/19 05:35:49;;;;;;;11.43;3.47;;;9.40;95.60;;;;;;5094183;28;20524;-34
2024/02/19 05:38:15;;;;;;;18.88;4.05;;;9.50;95.60;;;;;;5093822;28;20534;-40
2024/02/19 05:40:41;;;;;;;17.38;3.55;;;9.40;95.60;;;;;;5093851;28;20024;-35
2024/02/19 05:43:06;;;;;;;18.58;4.40;;;9.40;95.60;;;;;;5093826;28;20023;-34
2024/02/19 05:45:32;;;;;;;16.00;5.05;;;9.40;95.60;;;;;;5093915;28;20024;-35
2024/02/19 05:47:59;;;;;;;14.50;3.85;;;9.40;95.60;;;;;;5093751;28;20419;-36
2024/02/19 05:50:26;;;;;;;14.57;3.40;;;9.40;95.60;;;;;;5094166;28;20035;-36
2024/02/19 05:52:52;;;;;;;17.25;3.50;;;9.40;95.60;;;;;;5093902;28;20042;-37
2024/02/19 05:55:18;;;;;;;16.77;3.17;;;9.40;95.60;;;;;;5093902;28;20106;-35
2024/02/19 05:57:43;;;;;;;13.77;3.50;;;9.40;95.60;;;;;;5093895;28;20039;-36
2024/02/19 06:00:13;;;;;;;17.25;3.80;;;9.40;95.60;;;;;;5093718;28;20115;-35
2024/02/19 06:02:41;;;;;;;16.58;3.10;;;9.40;95.60;;;;;;5094040;28;20024;-35
2024/02/19 06:05:07;;;;;;;16.00;4.03;;;9.40;95.60;;;;;;5093714;28;20574;-33
2024/02/19 06:07:33;;;;;;;13.95;3.55;;;9.50;95.70;;;;;;5092584;28;20016;-33
2024/02/19 06:09:58;;;;;;;12.52;3.17;;;9.50;95.60;;;;;;5093873;28;20032;-33
2024/02/19 06:12:24;;;;;;;17.27;3.53;;;9.50;95.60;;;;;;5093371;28;20422;-34
2024/02/19 06:14:50;;;;;;;14.40;3.47;;;9.50;95.90;;;;;;5093731;28;20020;-38
2024/02/19 06:17:16;;;;;;;13.73;3.78;;;9.50;95.60;;;;;;5093445;28;20028;-33
2024/02/19 06:19:41;;;;;;;17.33;3.92;;;9.50;95.60;;;;;;5093421;28;20398;-36
2024/02/19 06:22:07;;;;;;;18.58;3.78;;;9.50;95.60;;;;;;5093210;28;20020;-35
2024/02/19 06:24:32;;;;;;;13.63;3.50;;;9.50;95.60;;;;;;5093265;28;20021;-36
2024/02/19 06:26:58;;;;;;;20.25;4.00;;;9.50;95.60;;;;;;5093252;28;20028;-34
2024/02/19 06:29:23;;;;;;;16.60;4.50;;;9.50;95.60;;;;;;5093116;28;20032;-38
2024/02/19 06:31:52;;;;;;;20.25;5.13;;;9.50;95.60;;;;;;5093387;28;20101;-33
2024/02/19 06:34:17;;;;;;;15.38;4.03;;;9.50;95.60;;;;;;5093002;28;20033;-34
2024/02/19 06:36:43;;;;;;;14.82;4.60;;;9.50;95.60;;;;;;5092931;28;20039;-37
2024/02/19 06:39:08;;;;;;;13.57;4.22;;;9.40;95.50;;;;;;5092376;28;20024;-35
2024/02/19 06:41:34;;;;;;;15.27;4.65;;;9.50;95.60;;;;;;5093321;28;20080;-36
2024/02/19 06:44:00;;;;;;;20.65;5.00;;;9.50;95.60;;;;;;5074716;28;20024;-36
2024/02/19 06:46:25;;;;;;;18.17;5.28;;;9.40;95.60;;;;;;5092785;28;20346;-36
2024/02/19 06:48:51;;;;;;;19.40;5.72;;;9.40;95.60;;;;;;5092880;28;20031;-33
2024/02/19 06:51:17;;;;;;;16.25;4.78;;;9.40;95.60;;;;;;5092613;28;20027;-36
2024/02/19 06:53:43;;;;;;;17.45;6.07;;;9.40;95.60;;;;;;5092609;28;20031;-34
2024/02/19 06:56:09;;;;;;;15.48;5.47;;;9.40;95.60;;;;;;5092558;28;20016;-34
2024/02/19 06:58:34;;;;;;;17.45;5.15;;;9.40;95.60;;;;;;5092419;28;20418;-34
2024/02/19 07:01:04;;;;;;;17.63;5.07;;;9.40;95.60;;;;;;5092400;28;20103;-36
2024/02/19 07:03:29;;;;;;;20.08;4.88;;;9.40;95.60;;;;;;5092765;28;20469;-34
2024/02/19 07:05:55;;;;;;;16.77;4.78;;;9.50;95.60;;;;;;5090965;28;20019;-35
2024/02/19 07:08:20;;;;;;;16.58;5.13;;;9.50;95.70;;;;;;5092423;28;20434;-33
2024/02/19 07:10:46;;;;;;;12.93;4.82;;;9.50;95.60;;;;;;5092383;28;20024;-33
2024/02/19 07:13:11;;;;;;;16.48;4.93;;;9.50;95.60;;;;;;5092255;28;20020;-36
2024/02/19 07:15:37;;;;;;;15.27;4.90;;;9.50;95.60;;;;;;5092155;28;20024;-33
2024/02/19 07:18:03;;;;;;;16.25;5.15;;;9.50;95.60;;;;;;5091876;28;20469;-36
2024/02/19 07:20:28;;;;;;;14.10;4.65;;;9.50;95.60;;;;;;5092162;28;20103;-33
2024/02/19 07:22:54;;;;;;;14.95;4.63;;;9.50;95.60;;;;;;5092047;28;20048;-35
2024/02/19 07:25:19;;;;;;;13.23;4.72;;;9.50;95.60;;;;;;5092023;28;20029;-33
2024/02/19 07:27:45;;;;;;;15.35;5.15;;;9.50;95.60;;;;;;5091902;28;20053;-38
2024/02/19 07:30:12;;;;;;;16.33;4.43;;;9.50;95.60;;;;;;5092245;28;20027;-34
2024/02/19 07:32:37;;;;;;;14.77;4.57;;;9.60;95.60;;;;;;5092036;28;20028;-35
2024/02/19 07:35:03;;;;;;;12.30;4.78;;;9.70;95.60;;;;;;5091753;28;20071;-34
2024/02/19 07:37:29;;;;;;;13.38;3.92;;;9.70;95.60;;;;;;5091787;28;20093;-35
2024/02/19 07:39:55;;;;;;;17.23;4.38;;;9.70;95.60;;;;;;5091895;28;20027;-36
2024/02/19 07:42:20;;;;;;;15.40;4.63;;;9.70;95.50;;;;;;5092197;28;20047;-33
2024/02/19 07:44:46;;;;;;;11.23;4.25;;;9.70;95.50;;;;;;5091600;28;20074;-33
2024/02/19 07:47:12;;;;;;;16.27;3.80;;;9.70;95.40;;;;;;5091960;28;20036;-34
2024/02/19 07:49:37;;;;;;;13.75;3.80;;;9.70;95.40;;;;;;5091781;28;20030;-34
2024/02/19 07:52:03;;;;;;;14.25;4.13;;;9.70;95.40;;;;;;5090946;28;20027;-35
2024/02/19 07:54:29;;;;;;;13.43;4.40;;;9.70;95.40;;;;;;5090466;28;20020;-35
2024/02/19 07:56:54;;;;;;;15.45;4.07;;;9.80;95.40;;;;;;5091498;28;20528;-34
2024/02/19 07:59:20;;;;;;;14.18;3.60;;;9.90;95.50;;;;;;5091931;28;20373;-35
2024/02/19 08:01:45;;;;;;;12.68;3.67;;;9.90;95.40;;;;;;5091586;28;20461;-33
2024/02/19 08:04:11;;;;;;;15.65;3.75;;;9.90;95.40;;;;;;5091498;28;20028;-40
2024/02/19 08:06:37;;;;;;;14.23;4.32;;;9.90;95.40;;;;;;5091526;28;20431;-33
2024/02/19 08:09:04;;;;;;;13.60;3.90;;;10.00;95.40;;;;;;5091359;28;20506;-36
2024/02/19 08:11:30;;;;;;;14.90;3.33;;;10.00;95.40;;;;;;5091855;28;20524;-36
2024/02/19 08:13:56;;;;;;;11.02;3.78;;;10.00;95.40;;;;;;5091485;28;20107;-35
2024/02/19 08:16:22;;;;;;;10.90;3.45;;;10.00;95.30;;;;;;5091260;28;20043;-35
2024/02/19 08:18:47;;;;;;;8.07;3.30;;;10.10;95.40;;;;;;5091305;28;20034;-35
2024/02/19 08:21:13;;;;;;;11.88;3.20;;;10.10;95.30;;;;;;5091169;28;20742;-37
2024/02/19 08:23:39;;;;;;;12.25;3.33;;;10.20;95.30;;;;;;5091579;28;20380;-36
2024/02/19 08:26:05;;;;;;;10.10;3.28;;;10.20;95.30;;;;;;5091546;28;20510;-36
2024/02/19 08:28:30;;;;;;;13.15;3.72;;;10.20;95.30;;;;;;5091344;28;20034;-36
2024/02/19 08:30:56;;;;;;;15.18;4.80;;;10.30;95.20;;;;;;5091177;28;20130;-36
2024/02/19 08:33:22;;;;;;;11.70;3.88;;;10.30;95.20;;;;;;5091078;28;20319;-36
2024/02/19 08:35:50;;;;;;;13.05;3.90;;;10.30;95.20;;;;;;5091123;28;20024;-33
2024/02/19 08:38:15;;;;;;;12.27;4.00;;;10.40;95.10;;;;;;5091244;28;20487;-36
2024/02/19 08:40:41;;;;;;;12.55;4.28;;;10.40;95.10;;;;;;5091568;28;20107;-38
2024/02/19 08:43:10;;;;;;;11.43;3.42;;;10.50;95.10;;;;;;5089997;28;20513;-33
2024/02/19 08:45:36;;;;;;;14.70;4.28;;;10.50;95.10;;;;;;5091308;28;20024;-33
2024/02/19 08:48:01;;;;;;;13.93;3.83;;;10.50;95.00;;;;;;5091549;28;20020;-37
2024/02/19 08:50:27;;;;;;;12.93;3.80;;;10.60;95.00;;;;;;5090994;28;20028;-35
2024/02/19 08:52:52;;;;;;;15.05;3.38;;;10.60;95.00;;;;;;5091018;28;20024;-37
2024/02/19 08:55:18;;;;;;;13.38;3.70;;;10.60;95.00;;;;;;5091030;28;20111;-35
2024/02/19 08:57:43;;;;;;;13.32;4.00;;;10.70;95.00;;;;;;5090916;28;20039;-36
2024/02/19 09:00:11;;;;;;;14.30;3.75;;;10.70;94.90;;;;;;5091138;28;20036;-34
2024/02/19 09:02:42;;;;;;;15.35;4.47;;;10.70;94.80;;;;;;5091171;28;20032;-33
2024/02/19 09:05:09;;;;;;;12.57;4.00;;;10.80;94.80;;;;;;5093462;28;20024;-36
2024/02/19 09:07:35;;;;;;;11.55;3.65;;;10.70;94.80;;;;;;5094683;28;20488;-38
2024/02/19 09:10:01;;;;;;;12.82;3.97;;;10.80;94.80;;;;;;5094757;28;20024;-34
2024/02/19 09:12:27;;;;;;;13.43;4.20;;;10.80;94.80;;;;;;5094481;28;20035;-33
2024/02/19 09:14:55;;;;;;;12.32;4.10;;;10.80;94.70;;;;;;5094396;28;20068;-37
2024/02/19 09:17:22;;;;;;;15.55;4.60;;;10.90;94.70;;;;;;5094716;28;20443;-35
2024/02/19 09:19:48;;;;;;;17.13;5.43;;;10.80;94.60;;;;;;5094344;28;20016;-33
2024/02/19 09:22:14;;;;;;;14.85;4.80;;;10.80;94.60;;;;;;5094364;28;20107;-37
2024/02/19 09:24:43;;;;;;;15.02;4.75;;;10.80;94.60;;;;;;5092899;28;20028;-33
2024/02/19 09:27:09;;;;;;;15.52;4.55;;;10.80;94.60;;;;;;5094737;28;20024;-35
2024/02/19 09:29:34;;;;;;;14.55;4.38;;;10.80;94.70;;;;;;5094389;28;20012;-33
2024/02/19 09:32:00;;;;;;;13.38;4.60;;;10.70;94.60;;;;;;5094166;28;20053;-35
2024/02/19 09:34:25;;;;;;;11.93;4.30;;;10.70;94.60;;;;;;5094067;28;20557;-36
2024/02/19 09:36:51;;;;;;;16.60;4.65;;;10.70;94.60;;;;;;5094332;28;20187;-32
2024/02/19 09:39:17;;;;;;;9.48;4.38;;;10.70;94.70;;;;;;5094342;28;20012;-36
2024/02/19 09:41:43;;;;;;;11.93;4.60;;;10.70;94.70;;;;;;5094220;28;20031;-38
2024/02/19 09:44:08;;;;;;;12.73;4.50;;;10.70;94.70;;;;;;5092686;28;20099;-35
2024/02/19 09:46:34;;;;;;;13.88;4.82;;;10.80;94.60;;;;;;5093700;28;20019;-37
2024/02/19 09:49:01;;;;;;;15.73;4.80;;;10.80;94.60;;;;;;5094029;28;20469;-34
2024/02/19 09:51:28;;;;;;;13.23;5.13;;;10.80;94.50;;;;;;5093676;28;20023;-38
2024/02/19 09:53:55;;;;;;;11.63;4.20;;;10.90;94.60;;;;;;5093985;28;20099;-35
2024/02/19 09:56:26;;;;;;;11.90;4.45;;;10.90;94.60;;;;;;5093990;28;20020;-35
2024/02/19 09:58:52;;;;;;;12.25;4.50;;;11.00;94.50;;;;;;5094039;28;20031;-36
2024/02/19 10:01:18;;;;;;;10.63;4.60;;;11.00;94.50;;;;;;5093570;28;20044;-36
2024/02/19 10:03:44;;;;;;;12.77;4.72;;;11.10;94.40;;;;;;5093590;28;20048;-35
2024/02/19 10:06:09;;;;;;;12.18;4.30;;;11.10;94.40;;;;;;5093623;28;20156;-35
2024/02/19 10:08:35;;;;;;;13.13;4.72;;;11.20;94.30;;;;;;5093566;28;20027;-35
2024/02/19 10:11:08;;;;;;;14.30;4.70;;;11.20;94.30;;;;;;5093665;28;20031;-36
2024/02/19 10:13:36;;;;;;;10.48;4.32;;;11.20;94.10;;;;;;5092776;28;20037;-35
2024/02/19 10:16:05;;;;;;;10.80;4.40;;;11.20;94.10;;;;;;5093451;28;20539;-38
2024/02/19 10:18:31;;;;;;;13.75;4.53;;;11.20;94.10;;;;;;5093445;28;20493;-34
2024/02/19 10:20:58;;;;;;;14.23;4.55;;;11.20;94.10;;;;;;5093145;28;20051;-37
2024/02/19 10:23:25;;;;;;;14.95;5.03;;;11.30;94.10;;;;;;5093440;28;20095;-35
2024/02/19 10:25:51;;;;;;;19.02;5.25;;;11.30;94.10;;;;;;5093411;28;20016;-34
2024/02/19 10:28:18;;;;;;;14.50;5.60;;;11.30;94.00;;;;;;5092024;28;20477;-36
2024/02/19 10:30:44;;;;;;;11.88;5.43;;;11.30;93.90;;;;;;5092994;28;20039;-36
2024/02/19 10:33:09;;;;;;;12.13;5.00;;;11.30;93.90;;;;;;5092932;28;20047;-33
2024/02/19 10:35:35;;;;;;;13.60;6.03;;;11.30;93.90;;;;;;5092913;28;20054;-37
2024/02/19 10:38:00;;;;;;;14.75;6.50;;;11.30;93.90;;;;;;5092954;28;20070;-33
2024/02/19 10:40:27;;;;;;;14.75;6.53;;;11.30;93.90;;;;;;5093192;28;20089;-34
2024/02/19 10:42:53;;;;;;;19.63;7.00;;;11.30;93.90;;;;;;5092622;28;20032;-35
2024/02/19 10:45:23;;;;;;;12.90;6.13;;;11.30;93.90;;;;;;5092872;28;20380;-39
2024/02/19 10:47:49;;;;;;;15.20;6.47;;;11.30;93.90;;;;;;5092619;28;20062;-34
2024/02/19 10:50:17;;;;;;;15.35;6.95;;;11.30;93.90;;;;;;5092923;28;20421;-39
2024/02/19 10:52:44;;;;;;;11.65;6.07;;;11.30;93.90;;;;;;5092725;28;20017;-38
2024/02/19 10:55:12;;;;;;;11.98;6.55;;;11.30;93.90;;;;;;5092606;28;20020;-38
2024/02/19 10:57:52;;;;;;;15.98;6.68;;;11.30;93.90;;;;;;5092483;28;20020;-38
2024/02/19 11:00:18;;;;;;;14.18;6.20;;;11.30;93.90;;;;;;5092743;28;20028;-36
2024/02/19 11:02:44;;;;;;;13.95;5.97;;;11.30;93.90;;;;;;5092743;28;20020;-39
2024/02/19 11:05:11;;;;;;;13.77;6.80;;;11.30;93.90;;;;;;5092435;28;20028;-38
2024/02/19 11:07:38;;;;;;;14.45;5.95;;;11.20;93.70;;;;;;5092733;28;20016;-40
2024/02/19 11:10:04;;;;;;;13.63;5.90;;;11.20;93.80;;;;;;5092314;28;20488;-36
2024/02/19 11:12:31;;;;;;;15.32;5.18;;;11.20;93.80;;;;;;5092152;28;20031;-38
2024/02/19 11:14:56;;;;;;;11.35;5.32;;;11.20;93.90;;;;;;5092186;28;20089;-36
2024/02/19 11:17:25;;;;;;;15.50;6.43;;;11.20;93.90;;;;;;5092340;28;20032;-35
2024/02/19 11:19:54;;;;;;;14.93;6.00;;;11.20;93.80;;;;;;5092164;28;20028;-36
2024/02/19 11:22:29;;;;;;;14.57;5.53;;;11.10;93.80;;;;;;5092100;28;20036;-33
2024/02/19 11:24:56;;;;;;;14.48;5.93;;;11.10;93.90;;;;;;5090531;28;20024;-38
2024/02/19 11:27:22;;;;;;;14.50;5.80;;;11.10;93.90;;;;;;5092314;28;20024;-33
2024/02/19 11:29:54;;;;;;;15.77;5.20;;;11.10;93.80;;;;;;5092230;28;20417;-36
2024/02/19 11:32:20;;;;;;;12.63;5.75;;;11.20;93.90;;;;;;5091958;28;20047;-33
2024/02/19 11:34:46;;;;;;;18.08;6.45;;;11.20;93.80;;;;;;5091826;28;20082;-35
2024/02/19 11:37:13;;;;;;;14.00;6.57;;;11.20;93.80;;;;;;5091831;28;20625;-35
2024/02/19 11:39:39;;;;;;;12.73;4.88;;;11.20;93.80;;;;;;5092120;28;20028;-35
2024/02/19 11:42:05;;;;;;;9.65;4.82;;;11.20;93.70;;;;;;5091732;28;20488;-38
2024/02/19 11:44:32;;;;;;;9.80;4.70;;;11.20;93.70;;;;;;5091922;28;20050;-37
2024/02/19 11:46:58;;;;;;;17.60;5.72;;;11.20;93.80;;;;;;5091887;28;20027;-38
2024/02/19 11:49:24;;;;;;;14.70;5.13;;;11.30;93.70;;;;;;5091795;28;20111;-37
2024/02/19 11:51:50;;;;;;;11.50;5.00;;;11.30;93.70;;;;;;5091383;28;20028;-34
2024/02/19 11:54:16;;;;;;;14.23;4.78;;;11.30;93.70;;;;;;5092032;28;20368;-39
2024/02/19 11:56:49;;;;;;;13.10;4.97;;;11.30;93.80;;;;;;5091883;28;20472;-41
2024/02/19 11:59:15;;;;;;;11.55;4.55;;;11.30;93.70;;;;;;5091962;28;20020;-41
2024/02/19 12:01:43;;;;;;;14.82;5.45;;;11.40;93.70;;;;;;5091749;28;20020;-38
2024/02/19 12:04:09;;;;;;;9.95;4.97;;;11.30;93.70;;;;;;5091750;28;20017;-37
2024/02/19 12:06:39;;;;;;;12.30;4.97;;;11.40;93.70;;;;;;5091569;28;20012;-38
2024/02/19 12:09:08;;;;;;;13.70;5.75;;;11.40;93.70;;;;;;5091606;28;20024;-37
2024/02/19 12:11:35;;;;;;;13.68;4.85;;;11.40;93.60;;;;;;5091351;28;20017;-35
2024/02/19 12:14:03;;;;;;;13.82;5.80;;;11.40;93.90;;;;;;5091541;28;20024;-37
2024/02/19 12:16:29;;;;;;;14.32;5.68;;;11.40;93.60;;;;;;5091503;28;20016;-34
2024/02/19 12:18:55;;;;;;;11.57;5.15;;;11.40;93.50;;;;;;5091037;28;20017;-36
2024/02/19 12:21:22;;;;;;;13.63;5.40;;;11.40;93.40;;;;;;5091577;28;20093;-35
2024/02/19 12:23:52;;;;;;;14.77;5.38;;;11.40;93.40;;;;;;5091579;28;20350;-35
2024/02/19 12:26:22;;;;;;;14.15;5.25;;;11.30;93.30;;;;;;5091529;28;20411;-35
2024/02/19 12:28:49;;;;;;;10.30;4.85;;;11.30;93.30;;;;;;5091431;28;20043;-36
2024/02/19 12:31:15;;;;;;;13.88;5.50;;;11.30;93.40;;;;;;5091345;28;20099;-35
2024/02/19 12:33:44;;;;;;;9.90;4.38;;;11.30;93.40;;;;;;5089937;28;20044;-37
2024/02/19 12:36:12;;;;;;;13.23;4.50;;;11.30;93.40;;;;;;5089898;28;20392;-33